Time;durP1;ratioP1;P1;durP2;ratioP2;P2;SDS_P1;SDS_P2;PMS_P1;PMS_P2;Temp;Humidity;BMP_temperature;BMP_pressure;BME280_temperature;BME280_humidity;BME280_pressure;Samples;Min_cycle;Max_cycle;Signal;HPM_P1;HPM_P2
2021/12/11 00:01:37;;;;;;;198.48;71.82;;;4.50;99.90;;;;;;5053835;28;20064;-80
2021/12/11 00:04:07;;;;;;;181.02;64.10;;;4.60;99.90;;;;;;5054620;28;20144;-78
2021/12/11 00:06:38;;;;;;;161.32;57.40;;;4.60;99.90;;;;;;5055455;28;20021;-79
2021/12/11 00:09:14;;;;;;;158.27;55.67;;;4.60;99.90;;;;;;5055597;28;20021;-80
2021/12/11 00:11:44;;;;;;;162.90;57.55;;;4.60;99.90;;;;;;5053231;28;20048;-79
2021/12/11 00:14:11;;;;;;;134.18;51.80;;;4.60;99.90;;;;;;5051357;28;20016;-79
2021/12/11 00:16:39;;;;;;;128.98;48.63;;;4.60;99.90;;;;;;5058229;28;20026;-79
2021/12/11 00:19:18;;;;;;;138.65;50.70;;;4.60;99.90;;;;;;5055518;28;20009;-78
2021/12/11 00:21:45;;;;;;;134.63;49.53;;;4.60;99.90;;;;;;5059023;28;20056;-79
2021/12/11 00:24:15;;;;;;;119.15;47.92;;;4.70;99.90;;;;;;5050992;28;20029;-79
2021/12/11 00:26:50;;;;;;;126.88;47.95;;;4.60;99.90;;;;;;5049340;28;20018;-79
2021/12/11 00:29:21;;;;;;;118.40;46.15;;;4.60;99.90;;;;;;5048807;28;20017;-79
2021/12/11 00:31:50;;;;;;;119.28;46.17;;;4.70;99.90;;;;;;5049475;28;20029;-79
2021/12/11 00:34:17;;;;;;;138.05;49.67;;;4.60;99.90;;;;;;5047786;28;20033;-79
2021/12/11 00:37:18;;;;;;;128.15;50.47;;;4.70;99.90;;;;;;5051125;28;20029;-78
2021/12/11 00:40:13;;;;;;;126.55;49.38;;;4.60;99.90;;;;;;5020099;28;20049;-79
2021/12/11 00:42:46;;;;;;;119.65;47.58;;;4.50;99.90;;;;;;5051183;28;20025;-79
2021/12/11 00:45:22;;;;;;;112.45;45.33;;;4.50;99.90;;;;;;5051076;28;20037;-79
2021/12/11 00:48:15;;;;;;;119.22;47.10;;;4.60;99.90;;;;;;5050520;28;20030;-79
2021/12/11 00:50:50;;;;;;;114.05;44.95;;;4.60;99.90;;;;;;5048368;28;20430;-79
2021/12/11 00:53:24;;;;;;;115.00;44.80;;;4.60;99.90;;;;;;5050729;28;20025;-80
2021/12/11 00:55:54;;;;;;;130.43;47.50;;;4.60;99.90;;;;;;5047638;28;20037;-78
2021/12/11 00:58:26;;;;;;;121.18;48.00;;;4.60;99.90;;;;;;5047279;28;20037;-79
2021/12/11 01:01:20;;;;;;;122.85;46.42;;;4.50;99.90;;;;;;5053350;28;20026;-79
2021/12/11 01:04:11;;;;;;;127.17;48.97;;;4.50;99.90;;;;;;5046971;28;20048;-79
2021/12/11 01:06:45;;;;;;;128.20;47.60;;;4.50;99.90;;;;;;5048268;28;20248;-79
2021/12/11 01:09:31;;;;;;;118.20;45.50;;;4.50;99.90;;;;;;5047750;28;20174;-79
2021/12/11 01:12:06;;;;;;;118.10;46.63;;;4.50;99.90;;;;;;5048804;28;20056;-80
2021/12/11 01:14:51;;;;;;;126.85;47.80;;;4.50;99.90;;;;;;5051244;28;20013;-80
2021/12/11 01:17:22;;;;;;;125.10;45.63;;;4.50;99.90;;;;;;5057931;28;20069;-79
2021/12/11 01:19:55;;;;;;;128.88;48.47;;;4.50;99.90;;;;;;5051826;28;20026;-80
2021/12/11 01:22:33;;;;;;;111.72;44.92;;;4.50;99.90;;;;;;5049741;28;20041;-80
2021/12/11 01:25:03;;;;;;;122.28;47.45;;;4.50;99.90;;;;;;5045310;28;20101;-79
2021/12/11 01:27:29;;;;;;;120.85;46.03;;;4.50;99.90;;;;;;5047026;28;20037;-79
2021/12/11 01:29:57;;;;;;;117.97;44.63;;;4.50;99.90;;;;;;5048222;28;20029;-81
2021/12/11 01:32:26;;;;;;;114.95;45.90;;;4.40;99.90;;;;;;5045450;28;20103;-79
2021/12/11 01:34:53;;;;;;;110.22;44.28;;;4.50;99.90;;;;;;5044697;28;20124;-79
2021/12/11 01:37:18;;;;;;;121.13;45.83;;;4.40;99.90;;;;;;5043913;28;20041;-79
2021/12/11 01:39:44;;;;;;;122.32;48.70;;;4.40;99.90;;;;;;5053668;28;20030;-79
2021/12/11 01:42:28;;;;;;;121.00;44.38;;;4.40;99.90;;;;;;5048106;28;20021;-79
2021/12/11 01:44:56;;;;;;;119.55;45.33;;;4.40;99.90;;;;;;5050689;28;20044;-79
2021/12/11 01:47:28;;;;;;;115.13;44.97;;;4.40;99.90;;;;;;5050316;28;20033;-78
2021/12/11 01:49:58;;;;;;;113.75;43.67;;;4.40;99.90;;;;;;5051263;28;20040;-80
2021/12/11 01:52:32;;;;;;;118.97;45.25;;;4.40;99.90;;;;;;5050940;28;20009;-79
2021/12/11 01:55:05;;;;;;;125.38;44.65;;;4.40;99.90;;;;;;5051166;28;20093;-78
2021/12/11 01:57:31;;;;;;;123.45;45.78;;;4.40;99.90;;;;;;5046085;28;20032;-80
2021/12/11 02:00:04;;;;;;;123.07;44.58;;;4.40;99.90;;;;;;5056707;28;20017;-79
2021/12/11 02:02:38;;;;;;;108.70;44.85;;;4.40;99.90;;;;;;5057220;28;20034;-80
2021/12/11 02:05:05;;;;;;;108.18;43.20;;;4.40;99.90;;;;;;5050564;28;20041;-79
2021/12/11 02:07:45;;;;;;;121.45;44.58;;;4.40;99.90;;;;;;5044597;28;20022;-80
2021/12/11 02:10:33;;;;;;;106.72;43.05;;;4.40;99.90;;;;;;5054589;28;20045;-80
2021/12/11 02:13:00;;;;;;;112.13;43.90;;;4.40;99.90;;;;;;5055438;28;20026;-80
2021/12/11 02:15:36;;;;;;;107.43;43.78;;;4.40;99.90;;;;;;5045192;28;20021;-80
2021/12/11 02:18:10;;;;;;;114.30;45.15;;;4.40;99.90;;;;;;5043112;28;20025;-80
2021/12/11 02:20:49;;;;;;;112.55;43.72;;;4.40;99.90;;;;;;5054303;28;20030;-78
2021/12/11 02:23:15;;;;;;;122.28;46.95;;;4.50;99.90;;;;;;5054724;28;20033;-79
2021/12/11 02:25:46;;;;;;;118.25;45.38;;;4.50;99.90;;;;;;5045800;28;20045;-82
2021/12/11 02:28:21;;;;;;;112.30;44.60;;;4.50;99.90;;;;;;5046937;28;20018;-81
2021/12/11 02:31:14;;;;;;;114.40;45.00;;;4.50;99.90;;;;;;5042702;28;20512;-80
2021/12/11 02:34:07;;;;;;;120.68;45.00;;;4.50;99.90;;;;;;5043344;28;20414;-79
2021/12/11 02:36:39;;;;;;;126.43;46.45;;;4.40;99.90;;;;;;5034378;28;20041;-80
2021/12/11 02:39:17;;;;;;;121.63;46.50;;;4.40;99.90;;;;;;5043763;28;20029;-79
2021/12/11 02:41:51;;;;;;;124.53;46.00;;;4.30;99.90;;;;;;5048769;28;20035;-80
2021/12/11 02:44:51;;;;;;;123.15;45.90;;;4.30;99.90;;;;;;5046786;28;20025;-80
2021/12/11 02:47:23;;;;;;;116.55;45.42;;;4.30;99.90;;;;;;5024576;28;20037;-79
2021/12/11 02:49:59;;;;;;;118.40;44.42;;;4.30;99.90;;;;;;5052529;28;20024;-80
2021/12/11 02:52:46;;;;;;;121.97;45.58;;;4.20;99.90;;;;;;5048996;28;20052;-81
2021/12/11 02:55:33;;;;;;;122.57;47.08;;;4.10;99.90;;;;;;5044658;28;20025;-81
2021/12/11 02:58:15;;;;;;;122.22;46.30;;;4.00;99.90;;;;;;5051285;28;20225;-80
2021/12/11 03:01:19;;;;;;;123.93;45.55;;;4.00;99.90;;;;;;5047428;28;20029;-81
2021/12/11 03:03:51;;;;;;;125.18;45.70;;;3.90;99.90;;;;;;5044287;28;20037;-82
2021/12/11 03:06:21;;;;;;;123.28;46.45;;;4.00;99.90;;;;;;5044972;28;20030;-80
2021/12/11 03:08:50;;;;;;;121.07;45.92;;;3.90;99.90;;;;;;5046241;28;20013;-81
2021/12/11 03:11:20;;;;;;;123.45;46.38;;;3.90;99.90;;;;;;5045400;28;20022;-81
2021/12/11 03:13:50;;;;;;;128.23;46.90;;;3.90;99.90;;;;;;5046068;28;20032;-81
2021/12/11 03:16:22;;;;;;;121.07;44.65;;;3.90;99.90;;;;;;5047102;28;20022;-80
2021/12/11 03:18:48;;;;;;;116.03;43.58;;;3.90;99.90;;;;;;5040366;28;20471;-81
2021/12/11 03:21:14;;;;;;;117.13;43.65;;;3.90;99.90;;;;;;5046636;28;20026;-81
2021/12/11 03:23:40;;;;;;;119.30;43.47;;;3.90;99.90;;;;;;5043839;28;20063;-77
2021/12/11 03:26:06;;;;;;;122.18;45.13;;;3.90;99.90;;;;;;5042785;28;20045;-79
2021/12/11 03:28:31;;;;;;;124.03;46.40;;;3.90;99.90;;;;;;5044141;28;20026;-80
2021/12/11 03:31:00;;;;;;;116.20;44.08;;;3.80;99.90;;;;;;5044226;28;20100;-80
2021/12/11 03:33:35;;;;;;;118.90;44.13;;;3.80;99.90;;;;;;5042953;28;20448;-80
2021/12/11 03:36:04;;;;;;;118.70;46.63;;;3.80;99.90;;;;;;5044681;28;20033;-79
2021/12/11 03:38:30;;;;;;;115.57;44.90;;;3.80;99.90;;;;;;5050109;28;20029;-81
2021/12/11 03:40:56;;;;;;;126.28;45.13;;;3.70;99.90;;;;;;5048896;28;20100;-79
2021/12/11 03:43:24;;;;;;;119.80;44.33;;;3.70;99.90;;;;;;5043810;28;20033;-80
2021/12/11 03:45:54;;;;;;;116.97;43.15;;;3.70;99.90;;;;;;5040478;28;20112;-79
2021/12/11 03:48:35;;;;;;;115.03;42.40;;;3.70;99.90;;;;;;5042553;28;20029;-80
2021/12/11 03:51:03;;;;;;;123.82;45.88;;;3.70;99.90;;;;;;5041022;28;20024;-81
2021/12/11 03:53:29;;;;;;;118.65;44.53;;;3.70;99.90;;;;;;5040369;28;20025;-81
2021/12/11 03:55:58;;;;;;;110.05;43.08;;;3.70;99.90;;;;;;5043386;28;20080;-80
2021/12/11 03:58:24;;;;;;;116.05;42.70;;;3.60;99.90;;;;;;5044456;28;20029;-81
2021/12/11 04:00:58;;;;;;;112.32;44.65;;;3.60;99.90;;;;;;5044004;28;20481;-80
2021/12/11 04:03:29;;;;;;;114.90;43.95;;;3.60;99.90;;;;;;5043242;28;20057;-80
2021/12/11 04:05:56;;;;;;;118.28;45.42;;;3.60;99.90;;;;;;5042442;28;20053;-79
2021/12/11 04:08:26;;;;;;;117.75;44.40;;;3.60;99.90;;;;;;5051197;28;20033;-80
2021/12/11 04:10:52;;;;;;;115.70;43.30;;;3.60;99.90;;;;;;5049872;28;20021;-79
2021/12/11 04:13:18;;;;;;;116.10;43.63;;;3.70;99.90;;;;;;5042938;28;20026;-81
2021/12/11 04:15:52;;;;;;;118.38;44.17;;;3.70;99.90;;;;;;5042129;28;20040;-79
2021/12/11 04:18:18;;;;;;;114.80;45.25;;;3.70;99.90;;;;;;5042023;28;20029;-78
2021/12/11 04:20:46;;;;;;;119.38;45.60;;;3.70;99.90;;;;;;5042594;28;20028;-79
2021/12/11 04:23:13;;;;;;;124.07;44.35;;;3.80;99.90;;;;;;5044065;28;20072;-79
2021/12/11 04:25:41;;;;;;;110.60;42.83;;;3.70;99.90;;;;;;5041650;28;20498;-81
2021/12/11 04:28:08;;;;;;;112.55;44.08;;;3.70;99.90;;;;;;5056254;28;20056;-78
2021/12/11 04:30:35;;;;;;;123.00;45.28;;;3.70;99.90;;;;;;5052202;28;20528;-78
2021/12/11 04:33:01;;;;;;;123.57;43.90;;;3.70;99.90;;;;;;5038832;28;20029;-78
2021/12/11 04:35:29;;;;;;;115.00;43.47;;;3.80;99.90;;;;;;5043571;28;20024;-78
2021/12/11 04:37:57;;;;;;;122.60;44.33;;;3.70;99.90;;;;;;5042653;28;20128;-78
2021/12/11 04:40:29;;;;;;;113.68;43.05;;;3.70;99.90;;;;;;5041637;28;20020;-78
2021/12/11 04:43:05;;;;;;;116.47;44.03;;;3.70;99.90;;;;;;5041067;28;20076;-78
2021/12/11 04:45:44;;;;;;;115.43;43.28;;;3.80;99.90;;;;;;5040048;28;20371;-78
2021/12/11 04:51:22;;;;;;;119.63;43.60;;;3.80;99.90;;;;;;5043396;28;20081;-78
2021/12/11 05:01:42;;;;;;;117.07;43.80;;;3.80;99.90;;;;;;5045056;28;20044;-78
2021/12/11 05:04:31;;;;;;;119.57;43.67;;;3.80;99.90;;;;;;5047266;28;20021;-79
2021/12/11 05:09:36;;;;;;;117.78;44.92;;;3.90;99.90;;;;;;5043623;28;20026;-78
2021/12/11 05:12:16;;;;;;;115.88;43.33;;;3.90;99.90;;;;;;5042824;28;20044;-78
2021/12/11 05:14:44;;;;;;;120.18;44.55;;;3.90;99.90;;;;;;5039986;28;20075;-79
2021/12/11 05:17:11;;;;;;;111.72;44.08;;;3.90;99.90;;;;;;5069796;23;20075;-78
2021/12/11 05:19:38;;;;;;;111.32;42.40;;;3.90;99.90;;;;;;5054766;28;20081;-77
2021/12/11 05:22:05;;;;;;;112.85;42.28;;;3.80;99.90;;;;;;5047341;28;20030;-79
2021/12/11 05:24:32;;;;;;;121.55;45.38;;;3.80;99.90;;;;;;5038471;28;20105;-75
2021/12/11 05:26:58;;;;;;;119.32;44.45;;;3.70;99.90;;;;;;5036202;28;20021;-78
2021/12/11 05:29:24;;;;;;;127.88;46.17;;;3.60;99.90;;;;;;5041017;28;20057;-77
2021/12/11 05:31:50;;;;;;;116.75;43.10;;;3.60;99.90;;;;;;5035816;28;20024;-77
2021/12/11 05:34:16;;;;;;;120.13;44.13;;;3.60;99.90;;;;;;5035822;28;20505;-76
2021/12/11 05:36:42;;;;;;;113.97;43.72;;;3.60;99.90;;;;;;5041929;28;20049;-76
2021/12/11 05:39:15;;;;;;;128.80;44.55;;;3.60;99.90;;;;;;5036173;28;20026;-76
2021/12/11 05:41:43;;;;;;;111.03;42.60;;;3.40;99.90;;;;;;5032573;28;20033;-77
2021/12/11 05:44:11;;;;;;;112.25;42.45;;;3.40;99.90;;;;;;5032619;28;20026;-77
2021/12/11 05:46:37;;;;;;;120.13;44.50;;;3.40;99.90;;;;;;5032749;28;20021;-77
2021/12/11 05:49:04;;;;;;;118.10;45.70;;;3.40;99.90;;;;;;5033513;28;20369;-76
2021/12/11 05:51:37;;;;;;;119.53;44.40;;;3.40;99.90;;;;;;5034191;28;20378;-77
2021/12/11 05:54:04;;;;;;;117.13;44.53;;;3.40;99.90;;;;;;5031823;28;20071;-77
2021/12/11 05:56:34;;;;;;;112.95;42.13;;;3.40;99.90;;;;;;5040742;28;20037;-75
2021/12/11 05:59:02;;;;;;;116.38;45.03;;;3.30;99.90;;;;;;5033288;28;20028;-77
2021/12/11 06:01:35;;;;;;;105.65;40.72;;;3.30;99.90;;;;;;5032816;28;20026;-77
2021/12/11 06:04:05;;;;;;;117.90;45.30;;;3.30;99.90;;;;;;5037305;28;20101;-77
2021/12/11 06:06:31;;;;;;;116.30;43.15;;;3.20;99.90;;;;;;5036689;28;20026;-79
2021/12/11 06:08:56;;;;;;;145.18;48.88;;;3.20;99.90;;;;;;5033568;28;20071;-77
2021/12/11 06:11:22;;;;;;;116.38;42.63;;;3.20;99.90;;;;;;5034572;28;20028;-77
2021/12/11 06:13:48;;;;;;;124.15;43.78;;;3.30;99.90;;;;;;5035554;28;20045;-77
2021/12/11 06:16:14;;;;;;;114.07;43.47;;;3.30;99.90;;;;;;5036818;28;20033;-77
2021/12/11 06:18:42;;;;;;;121.85;44.78;;;3.30;99.90;;;;;;5036283;28;20057;-77
2021/12/11 06:21:08;;;;;;;113.82;43.08;;;3.30;99.90;;;;;;5032452;28;20329;-77
2021/12/11 06:23:33;;;;;;;118.38;42.90;;;3.30;99.90;;;;;;5036273;28;20040;-77
2021/12/11 06:25:59;;;;;;;107.00;42.30;;;3.20;99.90;;;;;;5032932;28;20129;-77
2021/12/11 06:28:27;;;;;;;118.75;42.75;;;3.20;99.90;;;;;;5030588;28;20455;-77
2021/12/11 06:30:57;;;;;;;117.57;43.47;;;3.20;99.90;;;;;;5032641;28;20025;-76
2021/12/11 06:33:25;;;;;;;114.93;43.55;;;3.20;99.90;;;;;;5032728;28;20521;-77
2021/12/11 06:35:59;;;;;;;112.22;41.65;;;3.10;99.90;;;;;;5034107;28;20056;-77
2021/12/11 06:38:28;;;;;;;111.43;41.95;;;3.00;99.90;;;;;;5032591;28;20030;-77
2021/12/11 06:40:55;;;;;;;109.13;40.47;;;3.10;99.90;;;;;;5034241;28;20413;-77
2021/12/11 06:43:21;;;;;;;108.53;40.13;;;3.00;99.90;;;;;;5032869;28;20029;-78
2021/12/11 06:45:48;;;;;;;110.72;40.30;;;3.00;99.90;;;;;;5032772;28;20091;-77
2021/12/11 06:48:15;;;;;;;105.35;40.17;;;3.10;99.90;;;;;;5034427;28;20025;-77
2021/12/11 06:50:41;;;;;;;109.78;39.97;;;3.00;99.90;;;;;;5032709;28;20022;-77
2021/12/11 06:53:12;;;;;;;107.47;38.15;;;3.00;99.90;;;;;;5032653;28;20064;-76
2021/12/11 06:55:38;;;;;;;101.50;38.97;;;2.90;99.90;;;;;;5036378;28;20036;-76
2021/12/11 06:58:04;;;;;;;100.55;37.58;;;3.00;99.90;;;;;;5036611;28;20022;-77
2021/12/11 07:00:30;;;;;;;99.82;38.00;;;3.00;99.90;;;;;;5037445;28;20029;-77
2021/12/11 07:02:56;;;;;;;100.40;39.33;;;3.00;99.90;;;;;;5047393;28;20061;-77
2021/12/11 07:05:23;;;;;;;106.25;40.88;;;3.00;99.90;;;;;;5054010;28;20037;-76
2021/12/11 07:07:49;;;;;;;104.28;40.53;;;3.00;99.90;;;;;;5053455;28;20033;-76
2021/12/11 07:10:19;;;;;;;105.13;39.15;;;3.00;99.90;;;;;;5059449;28;20061;-78
2021/12/11 07:12:46;;;;;;;105.25;37.22;;;2.90;99.90;;;;;;5059673;28;20085;-77
2021/12/11 07:15:12;;;;;;;92.38;34.88;;;2.90;99.90;;;;;;5056657;28;20076;-77
2021/12/11 07:17:38;;;;;;;92.63;35.85;;;2.90;99.90;;;;;;5053747;28;20034;-78
2021/12/11 07:20:08;;;;;;;95.35;36.63;;;2.90;99.90;;;;;;5054657;28;20005;-77
2021/12/11 07:22:34;;;;;;;100.88;35.88;;;3.00;99.90;;;;;;5054509;28;20030;-76
2021/12/11 07:25:21;;;;;;;98.68;34.70;;;3.00;99.90;;;;;;5051560;28;20033;-77
2021/12/11 07:27:48;;;;;;;95.65;34.80;;;3.10;99.90;;;;;;5051956;28;20315;-77
2021/12/11 07:30:15;;;;;;;94.53;37.97;;;3.10;99.90;;;;;;5051380;28;20466;-76
2021/12/11 07:32:40;;;;;;;92.18;35.08;;;3.20;99.90;;;;;;5052980;28;20029;-77
2021/12/11 07:35:08;;;;;;;86.35;33.92;;;3.20;99.90;;;;;;5052418;28;20354;-77
2021/12/11 07:37:33;;;;;;;87.70;35.22;;;3.20;99.90;;;;;;5039391;28;20637;-78
2021/12/11 07:39:59;;;;;;;83.95;33.63;;;3.30;99.90;;;;;;5044335;28;20025;-76
2021/12/11 07:42:25;;;;;;;87.88;33.97;;;3.30;99.90;;;;;;5046281;28;20397;-78
2021/12/11 07:44:50;;;;;;;84.93;33.85;;;3.40;99.90;;;;;;5048867;28;20378;-77
2021/12/11 07:47:16;;;;;;;84.13;33.15;;;3.40;99.90;;;;;;5041535;28;20055;-78
2021/12/11 07:49:43;;;;;;;79.35;32.15;;;3.50;99.90;;;;;;5037626;28;20025;-77
2021/12/11 07:52:09;;;;;;;84.03;31.77;;;3.50;99.90;;;;;;5037662;28;20485;-78
2021/12/11 07:54:34;;;;;;;80.72;32.60;;;3.60;99.90;;;;;;5036590;28;20219;-77
2021/12/11 07:57:00;;;;;;;85.53;31.70;;;3.60;99.90;;;;;;5036889;28;20032;-77
2021/12/11 07:59:26;;;;;;;80.18;33.13;;;3.60;99.90;;;;;;5038277;28;20108;-76
2021/12/11 08:01:53;;;;;;;77.07;32.60;;;3.70;99.90;;;;;;5034874;28;20025;-76
2021/12/11 08:04:21;;;;;;;83.55;33.75;;;3.70;99.90;;;;;;5038883;28;20029;-77
2021/12/11 08:06:47;;;;;;;81.45;31.95;;;3.70;99.90;;;;;;5036144;28;20109;-78
2021/12/11 08:09:18;;;;;;;82.18;33.15;;;3.80;99.90;;;;;;5039872;28;20018;-78
2021/12/11 08:11:45;;;;;;;83.80;33.97;;;3.80;99.90;;;;;;5038055;28;20021;-78
2021/12/11 08:14:11;;;;;;;78.18;32.72;;;3.70;99.90;;;;;;5036329;28;20490;-78
2021/12/11 08:16:46;;;;;;;88.70;33.63;;;3.70;99.90;;;;;;5035484;28;20418;-76
2021/12/11 08:19:16;;;;;;;77.65;30.92;;;3.70;99.90;;;;;;5035833;28;20053;-77
2021/12/11 08:21:41;;;;;;;83.13;32.85;;;3.80;99.90;;;;;;5036105;28;20021;-79
2021/12/11 08:24:08;;;;;;;79.30;31.10;;;3.80;99.90;;;;;;5043307;28;20033;-78
2021/12/11 08:26:36;;;;;;;73.72;30.85;;;3.80;99.90;;;;;;5039177;28;20470;-77
2021/12/11 08:29:04;;;;;;;74.13;30.33;;;3.90;99.90;;;;;;5035996;28;20429;-77
2021/12/11 08:31:29;;;;;;;70.03;30.48;;;3.90;99.90;;;;;;5036756;28;20475;-77
2021/12/11 08:33:55;;;;;;;74.38;30.65;;;3.90;99.90;;;;;;5034946;28;20120;-78
2021/12/11 08:36:22;;;;;;;65.32;28.92;;;3.90;99.90;;;;;;5035367;28;20083;-78
2021/12/11 08:38:48;;;;;;;73.22;30.27;;;4.00;99.90;;;;;;5038045;28;20091;-78
2021/12/11 08:41:17;;;;;;;72.63;30.13;;;4.00;99.90;;;;;;5039216;28;20052;-78
2021/12/11 08:43:46;;;;;;;72.20;30.48;;;4.00;99.90;;;;;;5039264;28;20024;-78
2021/12/11 08:46:22;;;;;;;79.00;30.27;;;4.20;99.90;;;;;;5046492;28;20081;-76
2021/12/11 08:48:49;;;;;;;75.32;30.65;;;4.50;99.90;;;;;;5057653;28;20052;-77
2021/12/11 08:51:22;;;;;;;74.15;30.88;;;4.50;99.90;;;;;;5055546;28;20030;-77
2021/12/11 08:53:50;;;;;;;69.90;29.25;;;4.50;99.90;;;;;;5039283;28;20021;-77
2021/12/11 08:56:16;;;;;;;66.18;29.52;;;4.50;99.90;;;;;;5036198;28;20026;-77
2021/12/11 08:58:43;;;;;;;59.45;28.23;;;4.50;99.90;;;;;;5037143;28;20034;-78
2021/12/11 09:01:15;;;;;;;73.30;28.80;;;4.50;99.90;;;;;;5037433;28;20389;-77
2021/12/11 09:03:52;;;;;;;69.22;29.52;;;4.50;99.90;;;;;;5042026;28;20386;-78
2021/12/11 09:06:20;;;;;;;70.68;28.70;;;4.50;99.90;;;;;;5036816;28;20482;-79
2021/12/11 09:08:55;;;;;;;69.53;29.92;;;4.50;99.90;;;;;;5036331;28;20424;-77
2021/12/11 09:11:30;;;;;;;67.60;28.45;;;4.50;99.90;;;;;;5037704;28;20021;-78
2021/12/11 09:14:05;;;;;;;71.68;30.60;;;4.60;99.90;;;;;;5035638;28;20099;-78
2021/12/11 09:16:38;;;;;;;117.45;53.38;;;4.70;99.90;;;;;;5034703;28;20076;-77
2021/12/11 09:19:20;;;;;;;90.50;39.08;;;4.80;99.90;;;;;;5037623;28;20120;-75
2021/12/11 09:22:06;;;;;;;80.72;34.70;;;4.90;99.90;;;;;;5033319;28;20108;-76
2021/12/11 09:24:49;;;;;;;69.45;30.33;;;4.90;99.90;;;;;;5034067;28;20036;-76
2021/12/11 09:27:23;;;;;;;65.05;27.25;;;5.00;99.90;;;;;;5033959;28;20095;-77
2021/12/11 09:30:04;;;;;;;65.13;29.27;;;5.10;99.90;;;;;;5034980;28;20036;-77
2021/12/11 09:32:41;;;;;;;65.80;28.20;;;5.20;99.90;;;;;;5035589;28;20087;-77
2021/12/11 09:35:21;;;;;;;76.07;29.83;;;5.10;99.90;;;;;;5035569;28;20129;-77
2021/12/11 09:37:48;;;;;;;64.97;29.10;;;5.10;99.90;;;;;;5040669;28;20017;-76
2021/12/11 09:40:34;;;;;;;73.30;31.02;;;5.10;99.90;;;;;;5042913;28;20044;-77
2021/12/11 09:43:01;;;;;;;65.53;28.67;;;5.00;99.90;;;;;;5032026;28;20075;-76
2021/12/11 09:45:33;;;;;;;74.70;30.25;;;5.00;99.90;;;;;;5042518;28;20017;-78
2021/12/11 09:48:04;;;;;;;65.82;30.15;;;4.90;99.90;;;;;;5047947;28;20068;-77
2021/12/11 09:50:45;;;;;;;67.13;29.73;;;4.90;99.90;;;;;;5040852;28;20108;-77
2021/12/11 09:53:14;;;;;;;75.30;31.13;;;4.90;99.90;;;;;;5032329;28;20029;-77
2021/12/11 09:55:39;;;;;;;65.00;29.60;;;4.90;99.90;;;;;;5033217;28;20479;-77
2021/12/11 09:58:10;;;;;;;68.00;28.90;;;4.90;99.90;;;;;;5033503;28;20030;-77
2021/12/11 10:00:48;;;;;;;77.32;30.83;;;4.90;99.90;;;;;;5034756;28;20101;-78
2021/12/11 10:03:17;;;;;;;68.65;32.13;;;5.00;99.90;;;;;;5036289;28;20313;-78
2021/12/11 10:05:56;;;;;;;74.55;29.65;;;4.90;99.90;;;;;;5034244;28;20032;-76
2021/12/11 10:11:01;;;;;;;69.00;30.02;;;4.90;99.90;;;;;;5036354;28;20116;-78
2021/12/11 10:13:26;;;;;;;67.43;30.60;;;4.80;99.90;;;;;;5036203;28;20104;-77
2021/12/11 10:15:52;;;;;;;66.55;30.92;;;4.80;99.90;;;;;;5033292;28;20068;-77
2021/12/11 10:18:21;;;;;;;65.97;30.08;;;4.90;99.90;;;;;;5034830;28;20028;-77
2021/12/11 10:20:55;;;;;;;63.70;29.65;;;5.00;99.90;;;;;;5034833;28;20035;-77
2021/12/11 10:23:26;;;;;;;49.80;22.05;;;5.00;99.90;;;;;;5035481;28;20026;-78
2021/12/11 10:25:53;;;;;;;72.05;29.40;;;5.00;99.90;;;;;;5032340;28;20476;-76
2021/12/11 10:28:23;;;;;;;65.22;30.42;;;5.00;99.90;;;;;;5032955;28;20454;-77
2021/12/11 10:30:57;;;;;;;66.47;30.10;;;5.10;99.90;;;;;;5032728;28;20026;-77
2021/12/11 10:33:26;;;;;;;67.28;32.83;;;5.10;99.90;;;;;;5032674;28;20033;-78
2021/12/11 10:35:56;;;;;;;70.93;32.70;;;5.20;99.90;;;;;;5034523;28;20057;-78
2021/12/11 10:38:21;;;;;;;71.15;31.02;;;5.10;99.90;;;;;;5033170;28;20515;-77
2021/12/11 10:40:55;;;;;;;65.95;30.15;;;5.20;99.90;;;;;;5036540;28;20071;-76
2021/12/11 10:43:28;;;;;;;66.55;29.85;;;5.20;99.90;;;;;;5036596;28;20521;-77
2021/12/11 10:45:55;;;;;;;69.22;29.65;;;5.10;99.90;;;;;;5038237;28;20033;-77
2021/12/11 10:48:23;;;;;;;66.78;28.42;;;5.10;99.90;;;;;;5051154;28;20025;-76
2021/12/11 10:51:01;;;;;;;62.67;28.42;;;5.20;99.90;;;;;;5041063;28;20022;-75
2021/12/11 10:53:28;;;;;;;62.30;28.38;;;5.10;99.90;;;;;;5040222;28;20481;-77
2021/12/11 10:55:57;;;;;;;58.38;28.27;;;5.00;99.90;;;;;;5034044;28;20029;-78
2021/12/11 10:58:27;;;;;;;58.33;28.38;;;5.10;99.90;;;;;;5036861;28;20101;-77
2021/12/11 11:00:58;;;;;;;77.78;34.20;;;5.10;99.90;;;;;;5037851;28;20077;-78
2021/12/11 11:03:24;;;;;;;63.03;28.65;;;5.10;99.90;;;;;;5037085;28;20072;-78
2021/12/11 11:05:50;;;;;;;68.40;29.73;;;5.10;99.90;;;;;;5034478;28;20033;-77
2021/12/11 11:08:16;;;;;;;58.85;29.02;;;5.10;99.90;;;;;;5037372;28;20028;-77
2021/12/11 11:10:50;;;;;;;62.28;30.10;;;5.10;99.90;;;;;;5044165;28;20033;-77
2021/12/11 11:13:17;;;;;;;59.45;28.42;;;5.10;99.90;;;;;;5040261;28;20304;-78
2021/12/11 11:15:43;;;;;;;62.75;29.88;;;5.20;99.90;;;;;;5037560;28;20037;-77
2021/12/11 11:18:13;;;;;;;64.07;30.60;;;5.10;99.90;;;;;;5047842;28;20037;-79
2021/12/11 11:20:48;;;;;;;66.30;29.52;;;5.10;99.90;;;;;;5046885;28;20032;-80
2021/12/11 11:23:14;;;;;;;64.43;27.98;;;5.20;99.90;;;;;;5046663;28;20026;-77
2021/12/11 11:25:46;;;;;;;57.65;27.77;;;5.30;99.90;;;;;;5049670;28;20084;-77
2021/12/11 11:28:16;;;;;;;55.72;25.40;;;5.30;99.90;;;;;;5047788;28;20021;-76
2021/12/11 11:30:48;;;;;;;56.42;26.15;;;5.30;99.90;;;;;;5050299;28;20017;-77
2021/12/11 11:33:15;;;;;;;55.15;26.63;;;5.30;99.90;;;;;;5049640;28;20037;-76
2021/12/11 11:35:43;;;;;;;54.97;26.38;;;5.40;99.90;;;;;;5048775;28;20070;-77
2021/12/11 11:38:15;;;;;;;56.35;23.20;;;5.50;99.90;;;;;;5050202;28;20076;-77
2021/12/11 11:40:47;;;;;;;50.25;23.45;;;5.60;99.90;;;;;;5051250;28;20312;-77
2021/12/11 11:43:14;;;;;;;52.63;24.60;;;5.70;99.90;;;;;;5052953;28;20044;-78
2021/12/11 11:45:41;;;;;;;52.22;23.73;;;5.70;99.90;;;;;;5052761;28;20040;-77
2021/12/11 11:48:09;;;;;;;54.88;24.70;;;5.80;99.90;;;;;;5047205;28;20079;-77
2021/12/11 11:50:45;;;;;;;46.80;23.90;;;6.00;99.90;;;;;;5042970;28;20021;-77
2021/12/11 11:53:12;;;;;;;47.47;23.95;;;6.20;99.90;;;;;;5047985;28;20017;-77
2021/12/11 11:55:44;;;;;;;53.00;24.75;;;;;;;;;;5042521;28;20474;-77
2021/12/11 11:58:10;;;;;;;55.75;24.60;;;6.40;99.90;;;;;;5042803;28;20343;-76
2021/12/11 12:00:45;;;;;;;59.13;24.45;;;6.30;99.90;;;;;;5045818;28;20029;-78
2021/12/11 12:03:14;;;;;;;49.70;23.98;;;6.20;99.90;;;;;;5044081;28;20025;-79
2021/12/11 12:05:41;;;;;;;56.40;23.42;;;6.20;99.90;;;;;;5048066;28;20018;-76
2021/12/11 12:08:09;;;;;;;51.90;25.52;;;6.10;99.90;;;;;;5044871;28;20021;-78
2021/12/11 12:10:36;;;;;;;49.60;22.85;;;6.10;99.90;;;;;;5046795;28;20525;-79
2021/12/11 12:13:07;;;;;;;50.15;22.67;;;6.00;99.90;;;;;;5047593;28;20077;-78
2021/12/11 12:15:38;;;;;;;48.20;22.88;;;6.00;99.90;;;;;;5047419;28;20021;-77
2021/12/11 12:18:04;;;;;;;46.75;22.63;;;5.90;99.90;;;;;;5047207;28;20057;-78
2021/12/11 12:20:31;;;;;;;47.03;22.38;;;6.00;99.90;;;;;;5050032;28;20112;-77
2021/12/11 12:22:58;;;;;;;43.50;21.83;;;6.20;99.90;;;;;;5048809;28;20037;-78
2021/12/11 12:25:26;;;;;;;49.08;22.63;;;6.10;99.90;;;;;;5048346;28;20049;-78
2021/12/11 12:27:52;;;;;;;50.38;22.80;;;6.00;99.90;;;;;;5050120;28;20474;-79
2021/12/11 12:30:29;;;;;;;42.03;21.95;;;6.00;99.90;;;;;;5045270;28;20040;-78
2021/12/11 12:32:55;;;;;;;45.45;22.65;;;6.00;99.90;;;;;;5047589;28;20028;-76
2021/12/11 12:35:24;;;;;;;45.33;21.65;;;6.00;99.90;;;;;;5045602;28;20036;-78
2021/12/11 12:37:51;;;;;;;43.60;22.35;;;6.00;99.90;;;;;;5044209;28;20057;-78
2021/12/11 12:40:31;;;;;;;54.35;23.95;;;5.90;99.90;;;;;;5040157;28;20093;-77
2021/12/11 12:43:06;;;;;;;47.40;22.25;;;5.90;99.90;;;;;;5042917;28;20028;-79
2021/12/11 12:45:37;;;;;;;45.80;22.40;;;5.90;99.90;;;;;;5042708;28;20048;-78
2021/12/11 12:48:08;;;;;;;49.08;23.67;;;5.90;99.90;;;;;;5042510;28;20022;-77
2021/12/11 12:50:58;;;;;;;48.38;22.25;;;5.90;99.90;;;;;;5042589;28;20108;-79
2021/12/11 12:53:25;;;;;;;43.75;21.42;;;5.90;99.90;;;;;;5059940;28;20051;-79
2021/12/11 12:56:02;;;;;;;42.60;20.85;;;5.90;99.90;;;;;;5044237;28;20040;-76
2021/12/11 12:58:45;;;;;;;49.53;21.13;;;6.00;99.90;;;;;;5049015;28;20024;-77
2021/12/11 13:01:20;;;;;;;62.13;23.85;;;6.00;99.90;;;;;;5046766;28;20030;-77
2021/12/11 13:03:47;;;;;;;42.75;21.58;;;6.00;99.90;;;;;;5047813;28;20026;-77
2021/12/11 13:06:20;;;;;;;48.47;23.10;;;6.10;99.90;;;;;;5052324;28;20056;-79